SCELSCIP

Guest
Details From SCEL - Arturo Merino Benitez Intl
To SCIP - Mataveri Intl
Flight Number -
Tags Generated
Created
Modified
Stats Distance 2,028 nm / 3,755 km
Max Altitude 0 ft / 0 m
Waypoints 3
Social Downloads 25
Likes 0
Share VATSIM

Download

Looking for another format? Having issues loading an existing format? Contact us
Advertisement - Login to hide

Notes

Generated

Route

SCEL IPA SCIP

ID Type Via Altitude Latitude Longitude Leg Dist Tot Dist Heading (true) Name
O SCEL APT - 0 ft / 0 m -33.37608˚ -70.78671˚ - 0 nm - -
IPA VOR - 0 ft / 0 m -27.16389˚ -109.40583˚ 2025 nm 2025 nm 270° / 290° ISLA DE PASCUA VOR-DME
O SCIP APT - 0 ft / 0 m -27.15796˚ -109.43667˚ 1 nm 2027 nm 282° / 282° -

Altitude Profile

Advertisement - Login to hide

Weather


0- 5 10 15 20 25 30 35+ Temperature / ° C

Clouds and Precipitation
Forecast for 2017-12-12 12:00 UTC. Updated 2 hours ago

Ground ~20,000 ft ~40,000 ft Winds

SCEL

Details ICAO SCEL (SCL)
Name Arturo Merino Benitez Intl
Region Chile
Timezone America/Santiago (UTC-3.0)
Stats Elevation 1,550 ft / 472 m (AMSL)
Location -33.389775° -70.794366°
Runways 2
Magnetic Variation 1.803° E

METAR

SCEL 120900Z 21007KT 9999 BKN012 14/12 Q1016 NOSIG

Decode

TAF

TAF SCEL 120405Z 1206/1306 16008KT 9999 BKN015 TX24/1219Z TN12/1210Z TEMPO 1206/1215 VRB02KT 4000 BR SCT007 BKN012 BECMG 1216/1218 SCT035 BECMG 1218/1220 20013KT CAVOK BECMG 1300/1302 16006KT BKN020

Decode

Departure Runways

ID Width Length Bearing (true) Bearing (mag) Surface Threshold Offset Overrun Length
17L 180 ft / 55 m 10,523 ft / 3,207 m 177.43° 175.63° Asphalt 0 ft / 0 m 0 ft / 0 m
17R 148 ft / 45 m 12,504 ft / 3,811 m 177.44° 175.64° Asphalt 0 ft / 0 m 0 ft / 0 m
35L 148 ft / 45 m 12,504 ft / 3,811 m 357.44° 355.64° Asphalt 0 ft / 0 m 0 ft / 0 m
35R 180 ft / 55 m 10,523 ft / 3,207 m 357.43° 355.63° Asphalt 1,800 ft / 549 m 0 ft / 0 m

SCIP

Details ICAO SCIP (IPC)
Name Mataveri Intl
Region Chile
Timezone Pacific/Easter (UTC-5.0)
Stats Elevation 227 ft / 69 m (AMSL)
Location -27.164790° -109.421829°
Runways 1
Magnetic Variation 15.103° E

METAR

SCIP 120900Z 14003KT 100V160 9999 SCT020 18/16 Q1020 NOSIG

Decode

TAF

TAF SCIP 120430Z 1206/1306 09005KT 9999 FEW020 SCT250 TN17/1211Z TX25 /1220Z TEMPO 1209/1214 14005KT 8000 -SHRA SCT020 BKN040 BKN250 BECMG 1215/1217 36010KT SCT020 BKN250 TEMPO 1219/1223 30015KT 8000 -SHRA BKN020 BECMG 1301/1303 32010KT FEW020 SCT250

Decode

Destination Runways

ID Width Length Bearing (true) Bearing (mag) Surface Threshold Offset Overrun Length
10 145 ft / 44 m 10,848 ft / 3,306 m 117.35° 102.25° Asphalt 0 ft / 0 m 355 ft / 108 m
28 145 ft / 44 m 10,848 ft / 3,306 m 297.33° 282.23° Asphalt 0 ft / 0 m 95 ft / 29 m

Approach Navaids

Runway Type Ident Frequency Range Bearing (true) Bearing (mag) Slope Elevation
10 Localiser IIPA 110.30 MHz 18 nm / 33 km 119.21° 104.11° - 127 ft / 39 m (AMSL)
10 Glidescope IIPA 110.30 MHz 10 nm / 19 km 117.34° 102.24° 2.50° 148 ft / 45 m (AMSL)

Popular Alternatives